createdAt,value
2023-01-13T00:01:27.778Z,9.10
2023-01-13T00:03:54.728Z,9.10
2023-01-13T00:06:26.025Z,9.10
2023-01-13T00:08:53.789Z,9.10
2023-01-13T00:11:22.225Z,9.10
2023-01-13T00:13:49.037Z,9.20
2023-01-13T00:16:18.722Z,9.20
2023-01-13T00:18:46.712Z,9.10
2023-01-13T00:21:23.427Z,9.20
2023-01-13T00:23:52.602Z,9.20
2023-01-13T00:26:26.310Z,9.20
2023-01-13T00:29:00.149Z,9.20
2023-01-13T00:31:29.614Z,9.20
2023-01-13T00:33:58.858Z,9.20
2023-01-13T00:36:25.878Z,9.30
2023-01-13T00:38:52.790Z,9.30
2023-01-13T00:41:23.636Z,9.30
2023-01-13T00:43:50.721Z,9.40
2023-01-13T00:46:21.252Z,9.60
2023-01-13T00:48:48.610Z,9.60
2023-01-13T00:51:19.401Z,9.60
2023-01-13T00:53:49.166Z,9.70
2023-01-13T00:56:30.545Z,9.80
2023-01-13T00:59:05.203Z,9.90
2023-01-13T01:01:32.211Z,9.90
2023-01-13T01:03:59.492Z,10.00
2023-01-13T01:06:27.708Z,10.00
2023-01-13T01:08:56.237Z,10.10
2023-01-13T01:11:29.582Z,10.20
2023-01-13T01:14:00.386Z,10.20
2023-01-13T01:16:29.612Z,10.30
2023-01-13T01:18:57.281Z,10.40
2023-01-13T01:21:26.470Z,10.40
2023-01-13T01:23:54.454Z,10.50
2023-01-13T01:26:25.037Z,10.50
2023-01-13T01:28:52.587Z,10.60
2023-01-13T01:31:31.320Z,10.70
2023-01-13T01:33:59.026Z,10.70
2023-01-13T01:36:26.931Z,10.70
2023-01-13T01:38:57.529Z,10.80
2023-01-13T01:41:29.655Z,10.90
2023-01-13T01:44:08.230Z,10.90
2023-01-13T01:46:37.819Z,10.90
2023-01-13T01:49:13.022Z,10.90
2023-01-13T01:51:52.361Z,11.00
2023-01-13T01:54:47.187Z,11.10
2023-01-13T01:57:21.345Z,11.00
2023-01-13T01:59:48.264Z,11.00
2023-01-13T02:02:15.721Z,11.10
2023-01-13T02:04:51.462Z,11.10
2023-01-13T02:07:27.161Z,11.10
2023-01-13T02:09:57.740Z,11.20
2023-01-13T02:12:29.902Z,11.10
2023-01-13T02:15:06.792Z,11.10
2023-01-13T02:18:06.846Z,11.20
2023-01-13T02:20:59.014Z,11.20
2023-01-13T02:24:12.115Z,11.20
2023-01-13T02:26:59.807Z,11.20
2023-01-13T02:30:14.403Z,11.20
2023-01-13T02:33:01.219Z,11.20
2023-01-13T02:35:39.946Z,11.20
2023-01-13T02:38:13.366Z,11.20
2023-01-13T02:40:59.196Z,11.20
2023-01-13T02:43:58.399Z,11.20
2023-01-13T02:46:38.103Z,11.20
2023-01-13T02:49:12.313Z,11.20
2023-01-13T02:51:43.164Z,11.10
2023-01-13T02:54:15.109Z,11.10
2023-01-13T02:56:47.258Z,11.20
2023-01-13T02:59:14.842Z,11.10
2023-01-13T03:01:43.112Z,11.10
2023-01-13T03:04:15.538Z,11.10
2023-01-13T03:07:12.893Z,11.10
2023-01-13T03:09:58.341Z,11.00
2023-01-13T03:12:55.274Z,11.00
2023-01-13T03:15:28.764Z,11.00
2023-01-13T03:18:14.065Z,10.90
2023-01-13T03:21:01.417Z,11.00
2023-01-13T03:23:40.315Z,10.90
2023-01-13T03:26:35.100Z,10.90
2023-01-13T03:29:41.063Z,11.00
2023-01-13T03:32:17.290Z,10.90
2023-01-13T03:34:51.932Z,11.00
2023-01-13T03:37:27.252Z,11.00
2023-01-13T03:40:02.212Z,11.00
2023-01-13T03:42:33.568Z,11.00
2023-01-13T03:45:19.835Z,11.00
2023-01-13T03:47:53.093Z,11.00
2023-01-13T03:50:30.168Z,11.10
2023-01-13T03:53:07.170Z,11.00
2023-01-13T03:55:40.329Z,11.00
2023-01-13T03:58:25.046Z,11.10
2023-01-13T04:01:24.362Z,11.10
2023-01-13T04:03:59.539Z,11.00
2023-01-13T04:06:50.090Z,11.10
2023-01-13T04:09:34.065Z,11.10
2023-01-13T04:12:22.325Z,11.10
2023-01-13T04:14:50.600Z,11.10
2023-01-13T04:17:18.376Z,11.10
2023-01-13T04:19:45.217Z,11.00
2023-01-13T04:22:12.069Z,11.10
2023-01-13T04:24:38.910Z,11.10
2023-01-13T04:27:06.207Z,11.00
2023-01-13T04:29:33.077Z,11.00
2023-01-13T04:31:59.893Z,11.10
2023-01-13T04:34:28.371Z,11.00
2023-01-13T04:36:55.441Z,11.00
2023-01-13T04:39:22.241Z,11.00
2023-01-13T04:41:57.845Z,11.10
2023-01-13T04:44:25.502Z,11.10
2023-01-13T04:46:53.446Z,11.10
2023-01-13T04:49:20.561Z,11.10
2023-01-13T04:51:47.375Z,11.10
2023-01-13T04:54:14.379Z,11.20
2023-01-13T04:56:41.183Z,11.20
2023-01-13T04:59:10.984Z,11.30
2023-01-13T05:01:38.920Z,11.40
2023-01-13T05:04:07.105Z,11.40
2023-01-13T05:06:34.079Z,11.50
2023-01-13T05:09:00.911Z,11.60
2023-01-13T05:11:46.113Z,11.60
2023-01-13T05:14:31.649Z,11.60
2023-01-13T05:17:01.575Z,11.70
2023-01-13T05:19:39.055Z,11.80
2023-01-13T05:22:24.970Z,11.80
2023-01-13T05:25:10.569Z,11.90
2023-01-13T05:27:37.757Z,12.00
2023-01-13T05:30:05.872Z,12.00
2023-01-13T05:32:32.730Z,12.10
2023-01-13T05:34:59.662Z,12.10
2023-01-13T05:37:27.832Z,12.20
2023-01-13T05:40:13.542Z,12.20
2023-01-13T05:42:59.003Z,12.30
2023-01-13T05:45:25.957Z,12.30
2023-01-13T05:47:52.933Z,12.40
2023-01-13T05:50:19.934Z,12.40
2023-01-13T05:52:47.057Z,12.40
2023-01-13T05:55:14.690Z,12.40
2023-01-13T05:57:41.971Z,12.40
2023-01-13T06:00:09.724Z,12.50
2023-01-13T06:02:36.522Z,12.50
2023-01-13T06:05:03.451Z,12.60
2023-01-13T06:07:30.303Z,12.60
2023-01-13T06:09:57.089Z,12.60
2023-01-13T06:12:23.957Z,12.60
2023-01-13T06:14:50.728Z,12.60
2023-01-13T06:17:17.618Z,12.70
2023-01-13T06:19:44.482Z,12.60
2023-01-13T06:22:19.549Z,12.70
2023-01-13T06:24:46.444Z,12.70
2023-01-13T06:27:14.819Z,12.70
2023-01-13T06:29:42.169Z,12.70
2023-01-13T06:32:21.629Z,12.70
2023-01-13T06:34:58.677Z,12.70
2023-01-13T06:37:27.725Z,12.70
2023-01-13T06:40:02.794Z,12.80
2023-01-13T06:42:53.226Z,12.80
2023-01-13T06:45:21.163Z,12.70
2023-01-13T06:47:48.066Z,12.80
2023-01-13T06:50:14.880Z,12.80
2023-01-13T06:52:41.657Z,12.80
2023-01-13T06:55:08.735Z,12.80
2023-01-13T06:57:35.669Z,12.80
2023-01-13T07:00:02.799Z,12.80
2023-01-13T07:02:29.860Z,12.80
2023-01-13T07:04:56.756Z,12.80
2023-01-13T07:07:23.587Z,12.80
2023-01-13T07:09:50.379Z,12.80
2023-01-13T07:12:17.244Z,12.80
2023-01-13T07:15:04.304Z,12.80
2023-01-13T07:17:31.097Z,12.80
2023-01-13T07:19:58.035Z,12.80
2023-01-13T07:22:25.097Z,12.80
2023-01-13T07:24:51.978Z,12.80
2023-01-13T07:27:18.800Z,12.80
2023-01-13T07:29:45.621Z,12.80
2023-01-13T07:32:12.624Z,12.80
2023-01-13T07:34:39.476Z,12.80
2023-01-13T07:37:06.336Z,12.80
2023-01-13T07:39:33.127Z,12.80
2023-01-13T07:42:18.824Z,12.70
2023-01-13T07:44:45.724Z,12.80
2023-01-13T07:47:12.683Z,12.80
2023-01-13T07:49:39.551Z,12.80
2023-01-13T07:52:07.024Z,12.80
2023-01-13T07:54:40.769Z,12.80
2023-01-13T07:57:08.448Z,12.80
2023-01-13T07:59:35.282Z,12.80
2023-01-13T08:02:02.428Z,12.80
2023-01-13T08:04:29.407Z,12.90
2023-01-13T08:06:56.248Z,12.90
2023-01-13T08:09:23.075Z,12.90
2023-01-13T08:12:09.837Z,13.00
2023-01-13T08:14:36.766Z,13.00
2023-01-13T08:17:03.856Z,13.10
2023-01-13T08:19:30.691Z,13.10
2023-01-13T08:21:57.500Z,13.10
2023-01-13T08:24:24.418Z,13.10
2023-01-13T08:26:51.387Z,13.20
2023-01-13T08:29:18.277Z,13.20
2023-01-13T08:31:45.127Z,13.20
2023-01-13T08:34:12.014Z,13.20
2023-01-13T08:36:38.895Z,13.20
2023-01-13T08:39:05.803Z,13.20
2023-01-13T08:41:51.179Z,13.20
2023-01-13T08:44:18.009Z,13.20
2023-01-13T08:46:44.946Z,13.20
2023-01-13T08:49:11.799Z,13.20
2023-01-13T08:51:38.889Z,13.20
2023-01-13T08:54:05.709Z,13.20
2023-01-13T08:56:35.304Z,13.20
2023-01-13T08:59:02.812Z,13.20
2023-01-13T09:01:29.942Z,13.20
2023-01-13T09:03:56.929Z,13.20
2023-01-13T09:06:23.840Z,13.20
2023-01-13T09:08:50.679Z,13.30
2023-01-13T09:11:49.565Z,13.30
2023-01-13T09:14:25.902Z,13.30
2023-01-13T09:16:52.909Z,13.40
2023-01-13T09:19:19.732Z,13.40
2023-01-13T09:21:46.603Z,13.40
2023-01-13T09:24:13.636Z,13.50
2023-01-13T09:26:40.533Z,13.50
2023-01-13T09:29:07.363Z,13.50
2023-01-13T09:31:34.510Z,13.60
2023-01-13T09:34:21.471Z,13.60
2023-01-13T09:36:48.887Z,13.60
2023-01-13T09:39:16.658Z,13.70
2023-01-13T09:42:14.165Z,13.70
2023-01-13T09:45:19.971Z,13.80
2023-01-13T09:48:01.498Z,13.80
2023-01-13T09:51:03.116Z,13.90
2023-01-13T09:53:36.841Z,14.00
2023-01-13T09:56:04.260Z,14.00
2023-01-13T09:58:31.232Z,14.10
2023-01-13T10:01:32.181Z,14.10
2023-01-13T10:04:12.717Z,14.20
2023-01-13T10:06:44.043Z,14.30
2023-01-13T10:09:33.482Z,14.40
2023-01-13T10:12:21.176Z,14.50
2023-01-13T10:14:56.023Z,14.60
2023-01-13T10:17:36.488Z,14.80
2023-01-13T10:20:32.761Z,14.90
2023-01-13T10:23:40.203Z,15.10
2023-01-13T10:26:25.330Z,15.30
2023-01-13T10:28:54.731Z,15.40
2023-01-13T10:31:24.542Z,15.40
2023-01-13T10:34:05.812Z,15.40
2023-01-13T10:36:32.715Z,15.40
2023-01-13T10:39:16.119Z,15.40
2023-01-13T10:41:44.117Z,15.40
2023-01-13T10:44:17.983Z,15.40
2023-01-13T10:46:58.047Z,15.40
2023-01-13T10:49:36.427Z,15.40
2023-01-13T10:52:28.860Z,15.50
2023-01-13T10:54:56.881Z,15.50
2023-01-13T10:57:27.197Z,15.50
2023-01-13T10:59:55.738Z,15.60
2023-01-13T11:02:33.650Z,15.60
2023-01-13T11:05:25.007Z,15.60
2023-01-13T11:07:54.943Z,15.50
2023-01-13T11:10:33.315Z,15.40
2023-01-13T11:13:21.141Z,15.40
2023-01-13T11:16:17.939Z,15.30
2023-01-13T11:19:14.818Z,15.30
2023-01-13T11:22:08.572Z,15.20
2023-01-13T11:25:06.901Z,15.10
2023-01-13T11:28:02.570Z,15.10
2023-01-13T11:31:18.843Z,15.00
2023-01-13T11:33:57.039Z,15.00
2023-01-13T11:36:34.328Z,15.00
2023-01-13T11:40:05.866Z,14.90
2023-01-13T11:42:55.912Z,14.80
2023-01-13T11:45:49.450Z,14.80
2023-01-13T11:48:22.330Z,14.70
2023-01-13T11:51:32.875Z,14.60
2023-01-13T11:54:24.333Z,14.50
2023-01-13T11:57:51.128Z,14.50
2023-01-13T12:00:41.073Z,14.50
2023-01-13T12:03:35.671Z,14.50
2023-01-13T12:06:34.515Z,14.50
2023-01-13T12:09:14.678Z,14.50
2023-01-13T12:12:05.828Z,14.50
2023-01-13T12:15:12.808Z,14.50
2023-01-13T12:17:45.290Z,14.50
2023-01-13T12:20:39.372Z,14.50
2023-01-13T12:23:32.429Z,14.50
2023-01-13T12:26:19.127Z,14.50
2023-01-13T12:29:02.745Z,14.60
2023-01-13T12:31:34.783Z,14.60
2023-01-13T12:34:12.974Z,14.60
2023-01-13T12:37:27.480Z,14.50
2023-01-13T12:40:25.665Z,14.60
2023-01-13T12:43:39.180Z,14.60
2023-01-13T12:46:19.402Z,14.50
2023-01-13T12:48:55.236Z,14.50
2023-01-13T12:51:33.163Z,14.50
2023-01-13T12:54:03.286Z,14.40
2023-01-13T12:56:43.789Z,14.40
2023-01-13T12:59:19.886Z,14.30
2023-01-13T13:02:11.961Z,14.20
2023-01-13T13:04:51.226Z,14.20
2023-01-13T13:07:47.535Z,14.00
2023-01-13T13:10:31.523Z,13.90
2023-01-13T13:13:18.148Z,13.70
2023-01-13T13:15:50.498Z,13.60
2023-01-13T13:18:17.261Z,13.50
2023-01-13T13:21:03.957Z,13.50
2023-01-13T13:23:40.183Z,13.40
2023-01-13T13:26:22.048Z,13.40
2023-01-13T13:29:15.813Z,13.40
2023-01-13T13:32:01.303Z,13.50
2023-01-13T13:35:17.049Z,13.50
2023-01-13T13:38:20.848Z,13.50
2023-01-13T13:41:07.447Z,13.60
2023-01-13T13:44:03.596Z,13.60
2023-01-13T13:46:47.417Z,13.60
2023-01-13T13:49:21.364Z,13.60
2023-01-13T13:52:10.925Z,13.70
2023-01-13T13:54:43.997Z,13.70
2023-01-13T13:57:29.673Z,13.70
2023-01-13T14:00:00.918Z,13.80
2023-01-13T14:02:37.072Z,13.80
2023-01-13T14:05:31.699Z,13.80
2023-01-13T14:08:12.878Z,13.70
2023-01-13T14:10:43.124Z,13.70
2023-01-13T14:13:26.113Z,13.70
2023-01-13T14:16:03.588Z,13.70
2023-01-13T14:18:39.455Z,13.70
2023-01-13T14:21:22.361Z,13.60
2023-01-13T14:24:15.111Z,13.50
2023-01-13T14:26:42.397Z,13.30
2023-01-13T14:29:18.238Z,13.00
2023-01-13T14:31:45.554Z,12.60
2023-01-13T14:34:31.000Z,12.20
2023-01-13T14:37:00.827Z,11.80
2023-01-13T14:39:39.515Z,11.50
2023-01-13T14:42:16.459Z,11.20
2023-01-13T14:44:50.696Z,10.90
2023-01-13T14:47:28.230Z,10.70
2023-01-13T14:50:19.189Z,10.50
2023-01-13T14:52:52.569Z,10.20
2023-01-13T14:55:33.644Z,10.10
2023-01-13T14:58:22.561Z,10.00
2023-01-13T15:00:51.410Z,9.80
2023-01-13T15:03:21.254Z,9.80
2023-01-13T15:05:53.291Z,9.60
2023-01-13T15:08:34.796Z,9.60
2023-01-13T15:11:07.105Z,9.50
2023-01-13T15:13:56.655Z,9.50
2023-01-13T15:16:28.751Z,9.40
2023-01-13T15:18:58.842Z,9.40
2023-01-13T15:21:25.937Z,9.40
2023-01-13T15:23:52.965Z,9.30
2023-01-13T15:26:24.774Z,9.40
2023-01-13T15:28:53.912Z,9.30
2023-01-13T15:31:21.879Z,9.30
2023-01-13T15:33:49.370Z,9.20
2023-01-13T15:36:26.565Z,9.10
2023-01-13T15:38:54.253Z,9.00
2023-01-13T15:41:41.904Z,8.90
2023-01-13T15:44:31.418Z,8.90
2023-01-13T15:47:02.927Z,8.80
2023-01-13T15:49:35.101Z,8.70
2023-01-13T15:52:12.100Z,8.70
2023-01-13T15:54:38.944Z,8.70
2023-01-13T15:57:06.237Z,8.70
2023-01-13T15:59:33.838Z,8.70
2023-01-13T16:02:00.667Z,8.60
2023-01-13T16:04:27.482Z,8.70
2023-01-13T16:06:55.298Z,8.60
2023-01-13T16:09:22.111Z,8.60
2023-01-13T16:11:48.970Z,8.50
2023-01-13T16:14:15.786Z,8.50
2023-01-13T16:16:42.716Z,8.60
2023-01-13T16:19:12.430Z,8.60
2023-01-13T16:21:40.442Z,8.50
2023-01-13T16:24:07.304Z,8.50
2023-01-13T16:26:36.190Z,8.60
2023-01-13T16:29:03.439Z,8.60
2023-01-13T16:31:33.612Z,8.60
2023-01-13T16:34:02.888Z,8.70
2023-01-13T16:36:35.593Z,8.70
2023-01-13T16:39:19.756Z,8.70
2023-01-13T16:41:46.626Z,8.80
2023-01-13T16:44:13.456Z,8.80
2023-01-13T16:46:43.324Z,8.70
2023-01-13T16:49:14.528Z,8.70
2023-01-13T16:51:42.023Z,8.70
2023-01-13T16:54:08.871Z,8.80
2023-01-13T16:56:36.926Z,8.80
2023-01-13T16:59:11.676Z,8.90
2023-01-13T17:01:42.352Z,8.80
2023-01-13T17:04:21.427Z,8.80
2023-01-13T17:07:03.447Z,8.80
2023-01-13T17:09:30.656Z,8.80
2023-01-13T17:11:58.544Z,8.80
2023-01-13T17:14:26.410Z,8.80
2023-01-13T17:16:58.551Z,8.70
2023-01-13T17:19:25.868Z,8.70
2023-01-13T17:21:53.011Z,8.80
2023-01-13T17:24:20.696Z,8.70
2023-01-13T17:26:50.546Z,8.70
2023-01-13T17:29:25.112Z,8.70
2023-01-13T17:31:53.171Z,8.70
2023-01-13T17:34:21.373Z,8.70
2023-01-13T17:36:48.800Z,8.60
2023-01-13T17:39:25.416Z,8.60
2023-01-13T17:41:55.897Z,8.60
2023-01-13T17:44:23.793Z,8.60
2023-01-13T17:46:51.430Z,8.60
2023-01-13T17:49:21.770Z,8.60
2023-01-13T17:51:51.166Z,8.60
2023-01-13T17:54:18.691Z,8.60
2023-01-13T17:56:46.246Z,8.70
2023-01-13T17:59:15.256Z,8.70
2023-01-13T18:01:42.654Z,8.70
2023-01-13T18:04:27.322Z,8.70
2023-01-13T18:06:54.626Z,8.80
2023-01-13T18:09:22.865Z,8.80
2023-01-13T18:11:50.205Z,8.80
2023-01-13T18:14:17.214Z,8.90
2023-01-13T18:16:44.630Z,8.90
2023-01-13T18:19:30.257Z,8.90
2023-01-13T18:22:15.994Z,8.90
2023-01-13T18:25:02.133Z,8.90
2023-01-13T18:27:35.230Z,8.90
2023-01-13T18:30:03.923Z,8.90
2023-01-13T18:32:33.513Z,8.90
2023-01-13T18:35:06.445Z,8.90
2023-01-13T18:37:38.830Z,8.90
2023-01-13T18:40:07.932Z,8.90
2023-01-13T18:42:59.215Z,8.90
2023-01-13T18:45:31.941Z,8.90
2023-01-13T18:48:04.387Z,8.90
2023-01-13T18:50:33.067Z,8.90
2023-01-13T18:53:01.393Z,8.80
2023-01-13T18:55:28.902Z,8.80
2023-01-13T18:57:56.771Z,8.80
2023-01-13T19:00:26.823Z,8.80
2023-01-13T19:05:35.082Z,8.80
2023-01-13T19:08:02.803Z,8.80
2023-01-13T19:10:32.252Z,8.80
2023-01-13T19:12:59.433Z,8.80
2023-01-13T19:15:26.339Z,8.80
2023-01-13T19:17:53.222Z,8.80
2023-01-13T19:20:20.279Z,8.80
2023-01-13T19:22:53.955Z,8.80
2023-01-13T19:25:21.302Z,8.70
2023-01-13T19:27:48.264Z,8.70
2023-01-13T19:30:15.303Z,8.70
2023-01-13T19:32:42.143Z,8.60
2023-01-13T19:35:09.606Z,8.60
2023-01-13T19:37:36.950Z,8.50
2023-01-13T19:40:09.344Z,8.50
2023-01-13T19:42:54.665Z,8.50
2023-01-13T19:45:27.673Z,8.40
2023-01-13T19:47:56.291Z,8.40
2023-01-13T19:50:24.236Z,8.40
2023-01-13T19:52:51.515Z,8.40
2023-01-13T19:55:19.814Z,8.30
2023-01-13T19:57:47.026Z,8.30
2023-01-13T20:00:18.349Z,8.30
2023-01-13T20:02:49.127Z,8.30
2023-01-13T20:05:22.315Z,8.40
2023-01-13T20:07:51.084Z,8.40
2023-01-13T20:10:21.350Z,8.40
2023-01-13T20:12:48.792Z,8.40
2023-01-13T20:15:15.977Z,8.40
2023-01-13T20:17:42.940Z,8.50
2023-01-13T20:20:10.823Z,8.50
2023-01-13T20:22:39.753Z,8.50
2023-01-13T20:25:07.657Z,8.50
2023-01-13T20:27:34.918Z,8.50
2023-01-13T20:30:01.930Z,8.60
2023-01-13T20:32:28.943Z,8.60
2023-01-13T20:34:55.758Z,8.60
2023-01-13T20:37:22.931Z,8.60
2023-01-13T20:39:49.839Z,8.60
2023-01-13T20:42:34.207Z,8.60
2023-01-13T20:45:01.519Z,8.50
2023-01-13T20:47:30.346Z,8.50
2023-01-13T20:49:57.454Z,8.40
2023-01-13T20:52:24.767Z,8.30
2023-01-13T20:54:51.746Z,8.10
2023-01-13T20:57:18.852Z,8.00
2023-01-13T20:59:46.058Z,7.90
2023-01-13T21:02:16.217Z,7.80
2023-01-13T21:04:43.993Z,7.80
2023-01-13T21:07:11.672Z,7.70
2023-01-13T21:09:38.613Z,7.70
2023-01-13T21:12:25.495Z,7.60
2023-01-13T21:15:10.887Z,7.60
2023-01-13T21:17:56.414Z,7.60
2023-01-13T21:20:23.498Z,7.50
2023-01-13T21:22:50.560Z,7.50
2023-01-13T21:25:19.306Z,7.50
2023-01-13T21:27:46.318Z,7.50
2023-01-13T21:30:15.781Z,7.50
2023-01-13T21:32:44.754Z,7.50
2023-01-13T21:35:13.558Z,7.60
2023-01-13T21:37:42.757Z,7.40
2023-01-13T21:40:13.705Z,7.40
2023-01-13T21:43:00.517Z,7.40
2023-01-13T21:45:46.404Z,7.30
2023-01-13T21:48:13.349Z,7.30
2023-01-13T21:50:40.645Z,7.30
2023-01-13T21:53:08.264Z,7.30
2023-01-13T21:55:36.797Z,7.20
2023-01-13T21:58:12.985Z,7.20
2023-01-13T22:00:42.705Z,7.20
2023-01-13T22:03:11.716Z,7.10
2023-01-13T22:05:38.951Z,7.10
2023-01-13T22:08:06.715Z,7.00
2023-01-13T22:10:34.579Z,7.00
2023-01-13T22:13:23.403Z,7.00
2023-01-13T22:15:50.302Z,7.00
2023-01-13T22:18:20.440Z,7.00
2023-01-13T22:20:48.725Z,6.90
2023-01-13T22:23:15.829Z,6.90
2023-01-13T22:25:42.669Z,6.90
2023-01-13T22:28:13.630Z,6.90
2023-01-13T22:30:44.382Z,6.80
2023-01-13T22:33:11.197Z,6.80
2023-01-13T22:35:38.466Z,6.80
2023-01-13T22:38:05.304Z,6.80
2023-01-13T22:40:32.103Z,6.80
2023-01-13T22:42:58.875Z,6.70
2023-01-13T22:45:25.669Z,6.70
2023-01-13T22:47:52.475Z,6.70
2023-01-13T22:50:22.734Z,6.70
2023-01-13T22:52:49.941Z,6.60
2023-01-13T22:55:16.967Z,6.60
2023-01-13T22:57:48.221Z,6.60
2023-01-13T23:00:19.028Z,6.60
2023-01-13T23:02:49.296Z,6.60
2023-01-13T23:05:16.450Z,6.60
2023-01-13T23:07:43.243Z,6.50
2023-01-13T23:10:11.162Z,6.50
2023-01-13T23:12:38.188Z,6.50
2023-01-13T23:15:06.225Z,6.50
2023-01-13T23:17:33.600Z,6.40
2023-01-13T23:20:00.477Z,6.40
2023-01-13T23:22:27.434Z,6.50
2023-01-13T23:24:54.385Z,6.50
2023-01-13T23:27:21.197Z,6.50
2023-01-13T23:29:48.998Z,6.50
2023-01-13T23:32:15.848Z,6.50
2023-01-13T23:34:42.754Z,6.50
2023-01-13T23:37:09.591Z,6.50
2023-01-13T23:39:36.579Z,6.50
2023-01-13T23:42:03.585Z,6.50
2023-01-13T23:44:30.510Z,6.60
2023-01-13T23:46:58.193Z,6.60
2023-01-13T23:49:25.146Z,6.60
2023-01-13T23:51:52.784Z,6.60
2023-01-13T23:54:19.917Z,6.60
2023-01-13T23:56:49.466Z,6.60
2023-01-13T23:59:16.276Z,6.60
